sensor_id;sensor_type;location;lat;lon;timestamp;pressure;altitude;pressure_sealevel;temperature;humidity
38022;BME280;23832;43.216;27.946;2022-10-18T00:01:13;102480.16;;;16.36;100.00
38022;BME280;23832;43.216;27.946;2022-10-18T00:03:14;102488.97;;;16.36;100.00
38022;BME280;23832;43.216;27.946;2022-10-18T00:05:16;102489.28;;;16.33;100.00
38022;BME280;23832;43.216;27.946;2022-10-18T00:07:18;102478.63;;;16.33;100.00
38022;BME280;23832;43.216;27.946;2022-10-18T00:09:20;102476.97;;;16.32;100.00
38022;BME280;23832;43.216;27.946;2022-10-18T00:11:21;102477.81;;;16.33;100.00
38022;BME280;23832;43.216;27.946;2022-10-18T00:13:23;102483.97;;;16.33;100.00
38022;BME280;23832;43.216;27.946;2022-10-18T00:15:25;102479.31;;;16.27;100.00
38022;BME280;23832;43.216;27.946;2022-10-18T00:17:29;102481.63;;;16.30;100.00
38022;BME280;23832;43.216;27.946;2022-10-18T00:19:30;102475.31;;;16.31;100.00
38022;BME280;23832;43.216;27.946;2022-10-18T00:21:32;102471.66;;;16.32;100.00
38022;BME280;23832;43.216;27.946;2022-10-18T00:23:34;102467.34;;;16.31;100.00
38022;BME280;23832;43.216;27.946;2022-10-18T00:25:35;102467.34;;;16.31;100.00
38022;BME280;23832;43.216;27.946;2022-10-18T00:27:37;102475.31;;;16.31;100.00
38022;BME280;23832;43.216;27.946;2022-10-18T00:29:39;102470.00;;;16.31;100.00
38022;BME280;23832;43.216;27.946;2022-10-18T00:31:41;102460.53;;;16.29;100.00
38022;BME280;23832;43.216;27.946;2022-10-18T00:33:45;102463.34;;;16.27;100.00
38022;BME280;23832;43.216;27.946;2022-10-18T00:35:47;102462.53;;;16.27;100.00
38022;BME280;23832;43.216;27.946;2022-10-18T00:37:49;102456.50;;;16.25;100.00
38022;BME280;23832;43.216;27.946;2022-10-18T00:39:50;102451.34;;;16.23;100.00
38022;BME280;23832;43.216;27.946;2022-10-18T00:41:52;102455.84;;;16.23;100.00
38022;BME280;23832;43.216;27.946;2022-10-18T00:43:55;102454.84;;;16.24;100.00
38022;BME280;23832;43.216;27.946;2022-10-18T00:45:57;102440.53;;;16.25;100.00
38022;BME280;23832;43.216;27.946;2022-10-18T00:47:59;102440.53;;;16.25;100.00
38022;BME280;23832;43.216;27.946;2022-10-18T00:50:05;102445.03;;;16.24;100.00
38022;BME280;23832;43.216;27.946;2022-10-18T00:52:09;102438.88;;;16.24;100.00
38022;BME280;23832;43.216;27.946;2022-10-18T00:54:12;102452.00;;;16.25;100.00
38022;BME280;23832;43.216;27.946;2022-10-18T00:56:14;102436.88;;;16.26;100.00
38022;BME280;23832;43.216;27.946;2022-10-18T00:58:16;102448.34;;;16.26;100.00
38022;BME280;23832;43.216;27.946;2022-10-18T01:00:19;102437.88;;;16.25;100.00
38022;BME280;23832;43.216;27.946;2022-10-18T01:02:21;102431.72;;;16.24;100.00
38022;BME280;23832;43.216;27.946;2022-10-18T01:04:24;102436.22;;;16.24;100.00
38022;BME280;23832;43.216;27.946;2022-10-18T01:06:27;102431.72;;;16.24;100.00
38022;BME280;23832;43.216;27.946;2022-10-18T01:10:52;102433.72;;;16.22;100.00
38022;BME280;23832;43.216;27.946;2022-10-18T01:12:59;102423.91;;;16.23;100.00
38022;BME280;23832;43.216;27.946;2022-10-18T01:15:07;102426.56;;;16.23;100.00
38022;BME280;23832;43.216;27.946;2022-10-18T01:17:12;102433.06;;;16.20;100.00
38022;BME280;23832;43.216;27.946;2022-10-18T01:19:23;102423.44;;;16.19;100.00
38022;BME280;23832;43.216;27.946;2022-10-18T01:21:39;102420.09;;;16.17;100.00
38022;BME280;23832;43.216;27.946;2022-10-18T01:23:56;102427.56;;;16.13;100.00
38022;BME280;23832;43.216;27.946;2022-10-18T01:26:02;102421.75;;;16.10;100.00
38022;BME280;23832;43.216;27.946;2022-10-18T01:28:12;102423.72;;;16.08;100.00
38022;BME280;23832;43.216;27.946;2022-10-18T01:32:46;102423.91;;;16.06;100.00
38022;BME280;23832;43.216;27.946;2022-10-18T01:34:49;102419.75;;;16.04;100.00
38022;BME280;23832;43.216;27.946;2022-10-18T01:36:53;102425.25;;;16.02;100.00
38022;BME280;23832;43.216;27.946;2022-10-18T01:38:56;102426.25;;;16.01;100.00
38022;BME280;23832;43.216;27.946;2022-10-18T01:40:59;102421.09;;;16.00;100.00
38022;BME280;23832;43.216;27.946;2022-10-18T01:43:02;102427.38;;;15.99;100.00
38022;BME280;23832;43.216;27.946;2022-10-18T01:45:04;102418.56;;;15.98;100.00
38022;BME280;23832;43.216;27.946;2022-10-18T01:47:08;102419.75;;;15.96;100.00
38022;BME280;23832;43.216;27.946;2022-10-18T01:49:12;102419.09;;;15.94;100.00
38022;BME280;23832;43.216;27.946;2022-10-18T01:51:14;102417.44;;;15.93;100.00
38022;BME280;23832;43.216;27.946;2022-10-18T01:53:26;102415.78;;;15.92;100.00
38022;BME280;23832;43.216;27.946;2022-10-18T01:55:30;102415.78;;;15.92;100.00
38022;BME280;23832;43.216;27.946;2022-10-18T01:57:34;102416.75;;;15.91;100.00
38022;BME280;23832;43.216;27.946;2022-10-18T01:59:43;102420.09;;;15.93;100.00
38022;BME280;23832;43.216;27.946;2022-10-18T02:01:50;102422.75;;;15.93;100.00
38022;BME280;23832;43.216;27.946;2022-10-18T02:03:53;102423.75;;;15.92;100.00
38022;BME280;23832;43.216;27.946;2022-10-18T02:05:58;102420.25;;;15.91;100.00
38022;BME280;23832;43.216;27.946;2022-10-18T02:08:05;102413.25;;;15.90;100.00
38022;BME280;23832;43.216;27.946;2022-10-18T02:10:10;102414.25;;;15.89;100.00
38022;BME280;23832;43.216;27.946;2022-10-18T02:12:12;102416.25;;;15.87;100.00
38022;BME280;23832;43.216;27.946;2022-10-18T02:14:15;102411.44;;;15.82;100.00
38022;BME280;23832;43.216;27.946;2022-10-18T02:16:20;102412.41;;;15.81;100.00
38022;BME280;23832;43.216;27.946;2022-10-18T02:18:25;102408.09;;;15.80;100.00
38022;BME280;23832;43.216;27.946;2022-10-18T02:20:28;102410.91;;;15.79;100.00
38022;BME280;23832;43.216;27.946;2022-10-18T02:22:33;102406.59;;;15.78;100.00
38022;BME280;23832;43.216;27.946;2022-10-18T02:24:36;102414.75;;;15.76;100.00
38022;BME280;23832;43.216;27.946;2022-10-18T02:26:39;102417.41;;;15.76;100.00
38022;BME280;23832;43.216;27.946;2022-10-18T02:28:40;102404.28;;;15.75;100.00
38022;BME280;23832;43.216;27.946;2022-10-18T02:30:43;102402.63;;;15.74;100.00
38022;BME280;23832;43.216;27.946;2022-10-18T02:32:48;102407.94;;;15.74;100.00
38022;BME280;23832;43.216;27.946;2022-10-18T02:34:55;102409.75;;;15.73;100.00
38022;BME280;23832;43.216;27.946;2022-10-18T02:36:58;102406.09;;;15.74;100.00
38022;BME280;23832;43.216;27.946;2022-10-18T02:39:03;102400.94;;;15.73;100.00
38022;BME280;23832;43.216;27.946;2022-10-18T02:41:06;102405.56;;;15.71;100.00
38022;BME280;23832;43.216;27.946;2022-10-18T02:43:08;102401.25;;;15.70;100.00
38022;BME280;23832;43.216;27.946;2022-10-18T02:45:09;102398.78;;;15.68;100.00
38022;BME280;23832;43.216;27.946;2022-10-18T02:47:12;102400.75;;;15.66;100.00
38022;BME280;23832;43.216;27.946;2022-10-18T02:49:13;102403.44;;;15.66;100.00
38022;BME280;23832;43.216;27.946;2022-10-18T02:51:15;102395.75;;;15.63;100.00
38022;BME280;23832;43.216;27.946;2022-10-18T02:53:17;102402.25;;;15.60;100.00
38022;BME280;23832;43.216;27.946;2022-10-18T02:55:20;102399.72;;;15.59;100.00
38022;BME280;23832;43.216;27.946;2022-10-18T02:57:22;102391.06;;;15.57;100.00
38022;BME280;23832;43.216;27.946;2022-10-18T02:59:23;102396.56;;;15.55;100.00
38022;BME280;23832;43.216;27.946;2022-10-18T03:01:25;102402.84;;;15.54;100.00
38022;BME280;23832;43.216;27.946;2022-10-18T03:03:27;102402.84;;;15.54;100.00
38022;BME280;23832;43.216;27.946;2022-10-18T03:05:28;102409.03;;;15.55;100.00
38022;BME280;23832;43.216;27.946;2022-10-18T03:07:30;102402.84;;;15.54;100.00
38022;BME280;23832;43.216;27.946;2022-10-18T03:09:32;102406.38;;;15.55;100.00
38022;BME280;23832;43.216;27.946;2022-10-18T03:11:35;102405.38;;;15.56;100.00
38022;BME280;23832;43.216;27.946;2022-10-18T03:13:36;102406.38;;;15.55;100.00
38022;BME280;23832;43.216;27.946;2022-10-18T03:15:38;102400.19;;;15.54;100.00
38022;BME280;23832;43.216;27.946;2022-10-18T03:17:41;102408.03;;;15.56;100.00
38022;BME280;23832;43.216;27.946;2022-10-18T03:19:42;102397.41;;;15.56;100.00
38022;BME280;23832;43.216;27.946;2022-10-18T03:21:44;102401.34;;;15.52;100.00
38022;BME280;23832;43.216;27.946;2022-10-18T03:23:46;102403.34;;;15.50;100.00
38022;BME280;23832;43.216;27.946;2022-10-18T03:25:47;102402.03;;;15.46;100.00
38022;BME280;23832;43.216;27.946;2022-10-18T03:27:50;102399.50;;;15.44;100.00
38022;BME280;23832;43.216;27.946;2022-10-18T03:29:52;102398.66;;;15.44;100.00
38022;BME280;23832;43.216;27.946;2022-10-18T03:31:54;102397.00;;;15.43;100.00
38022;BME280;23832;43.216;27.946;2022-10-18T03:33:55;102399.66;;;15.43;100.00
38022;BME280;23832;43.216;27.946;2022-10-18T03:35:57;102397.19;;;15.41;100.00
38022;BME280;23832;43.216;27.946;2022-10-18T03:37:59;102390.38;;;15.39;100.00
38022;BME280;23832;43.216;27.946;2022-10-18T03:40:01;102388.53;;;15.39;100.00
38022;BME280;23832;43.216;27.946;2022-10-18T03:42:03;102386.06;;;15.38;100.00
38022;BME280;23832;43.216;27.946;2022-10-18T03:44:06;102395.84;;;15.37;100.00
38022;BME280;23832;43.216;27.946;2022-10-18T03:46:08;102392.50;;;15.35;100.00
38022;BME280;23832;43.216;27.946;2022-10-18T03:48:09;102390.00;;;15.33;100.00
38022;BME280;23832;43.216;27.946;2022-10-18T03:50:11;102386.19;;;15.28;100.00
38022;BME280;23832;43.216;27.946;2022-10-18T03:52:13;102393.47;;;15.26;100.00
38022;BME280;23832;43.216;27.946;2022-10-18T03:54:14;102390.16;;;15.24;100.00
38022;BME280;23832;43.216;27.946;2022-10-18T03:56:16;102387.81;;;15.21;100.00
38022;BME280;23832;43.216;27.946;2022-10-18T03:58:18;102396.91;;;15.18;100.00
38022;BME280;23832;43.216;27.946;2022-10-18T04:00:21;102392.78;;;15.16;100.00
38022;BME280;23832;43.216;27.946;2022-10-18T04:02:23;102392.78;;;15.16;100.00
38022;BME280;23832;43.216;27.946;2022-10-18T04:04:24;102393.59;;;15.16;100.00
38022;BME280;23832;43.216;27.946;2022-10-18T04:06:26;102402.22;;;15.18;100.00
38022;BME280;23832;43.216;27.946;2022-10-18T04:08:28;102403.09;;;15.19;100.00
38022;BME280;23832;43.216;27.946;2022-10-18T04:10:29;102402.22;;;15.18;100.00
38022;BME280;23832;43.216;27.946;2022-10-18T04:12:31;102402.94;;;15.20;100.00
38022;BME280;23832;43.216;27.946;2022-10-18T04:14:33;102400.28;;;15.20;100.00
38022;BME280;23832;43.216;27.946;2022-10-18T04:16:36;102393.97;;;15.21;100.00
38022;BME280;23832;43.216;27.946;2022-10-18T04:18:39;102394.97;;;15.20;100.00
38022;BME280;23832;43.216;27.946;2022-10-18T04:20:41;102405.59;;;15.20;100.00
38022;BME280;23832;43.216;27.946;2022-10-18T04:22:43;102400.44;;;15.19;100.00
38022;BME280;23832;43.216;27.946;2022-10-18T04:24:45;102397.91;;;15.17;100.00
38022;BME280;23832;43.216;27.946;2022-10-18T04:26:47;102395.44;;;15.16;100.00
38022;BME280;23832;43.216;27.946;2022-10-18T04:28:48;102400.75;;;15.16;100.00
38022;BME280;23832;43.216;27.946;2022-10-18T04:30:50;102407.88;;;15.15;100.00
38022;BME280;23832;43.216;27.946;2022-10-18T04:32:54;102392.78;;;15.16;100.00
38022;BME280;23832;43.216;27.946;2022-10-18T04:34:55;102397.25;;;15.15;100.00
38022;BME280;23832;43.216;27.946;2022-10-18T04:36:57;102392.94;;;15.14;100.00
38022;BME280;23832;43.216;27.946;2022-10-18T04:38:59;102402.22;;;15.10;100.00
38022;BME280;23832;43.216;27.946;2022-10-18T04:41:01;102394.59;;;15.15;100.00
38022;BME280;23832;43.216;27.946;2022-10-18T04:43:03;102396.91;;;15.18;100.00
38022;BME280;23832;43.216;27.946;2022-10-18T04:45:05;102396.63;;;15.21;100.00
38022;BME280;23832;43.216;27.946;2022-10-18T04:47:07;102405.75;;;15.27;100.00
38022;BME280;23832;43.216;27.946;2022-10-18T04:49:10;102399.44;;;15.20;100.00
38022;BME280;23832;43.216;27.946;2022-10-18T04:51:12;102394.78;;;15.22;100.00
38022;BME280;23832;43.216;27.946;2022-10-18T04:53:14;102398.63;;;15.27;100.00
38022;BME280;23832;43.216;27.946;2022-10-18T04:55:16;102400.47;;;15.35;100.00
38022;BME280;23832;43.216;27.946;2022-10-18T04:57:18;102403.31;;;15.42;100.00
38022;BME280;23832;43.216;27.946;2022-10-18T04:59:19;102403.38;;;15.58;100.00
38022;BME280;23832;43.216;27.946;2022-10-18T05:01:21;102397.09;;;15.67;100.00
38022;BME280;23832;43.216;27.946;2022-10-18T05:03:23;102402.75;;;15.72;100.00
38022;BME280;23832;43.216;27.946;2022-10-18T05:05:26;102396.28;;;15.75;100.00
38022;BME280;23832;43.216;27.946;2022-10-18T05:07:28;102403.94;;;15.78;100.00
38022;BME280;23832;43.216;27.946;2022-10-18T05:09:30;102401.94;;;15.80;100.00
38022;BME280;23832;43.216;27.946;2022-10-18T05:11:31;102400.44;;;15.77;100.00
38022;BME280;23832;43.216;27.946;2022-10-18T05:13:33;102401.94;;;15.80;100.00
38022;BME280;23832;43.216;27.946;2022-10-18T05:15:34;102398.81;;;15.84;100.00
38022;BME280;23832;43.216;27.946;2022-10-18T05:17:36;102403.78;;;15.87;100.00
38022;BME280;23832;43.216;27.946;2022-10-18T05:19:38;102396.47;;;15.89;100.00
38022;BME280;23832;43.216;27.946;2022-10-18T05:21:41;102399.81;;;15.92;100.00
38022;BME280;23832;43.216;27.946;2022-10-18T05:23:42;102393.63;;;15.99;100.00
38022;BME280;23832;43.216;27.946;2022-10-18T05:25:44;102402.47;;;16.16;100.00
38022;BME280;23832;43.216;27.946;2022-10-18T05:27:45;102404.78;;;16.35;100.00
38022;BME280;23832;43.216;27.946;2022-10-18T05:29:47;102417.06;;;16.61;100.00
38022;BME280;23832;43.216;27.946;2022-10-18T05:31:49;102402.88;;;16.85;100.00
38022;BME280;23832;43.216;27.946;2022-10-18T05:33:50;102406.94;;;17.12;100.00
38022;BME280;23832;43.216;27.946;2022-10-18T05:35:52;102407.69;;;17.37;100.00
38022;BME280;23832;43.216;27.946;2022-10-18T05:37:55;102408.38;;;17.62;100.00
38022;BME280;23832;43.216;27.946;2022-10-18T05:39:57;102401.22;;;17.85;100.00
38022;BME280;23832;43.216;27.946;2022-10-18T05:41:58;102400.81;;;17.96;100.00
38022;BME280;23832;43.216;27.946;2022-10-18T05:44:02;102398.66;;;18.14;100.00
38022;BME280;23832;43.216;27.946;2022-10-18T05:46:04;102407.84;;;18.35;100.00
38022;BME280;23832;43.216;27.946;2022-10-18T05:48:06;102402.91;;;18.61;100.00
38022;BME280;23832;43.216;27.946;2022-10-18T05:50:08;102400.34;;;18.83;100.00
38022;BME280;23832;43.216;27.946;2022-10-18T05:52:10;102417.88;;;19.00;100.00
38022;BME280;23832;43.216;27.946;2022-10-18T05:54:14;102402.81;;;19.14;100.00
38022;BME280;23832;43.216;27.946;2022-10-18T05:56:15;102410.81;;;19.28;100.00
38022;BME280;23832;43.216;27.946;2022-10-18T05:58:17;102420.00;;;19.41;100.00
38022;BME280;23832;43.216;27.946;2022-10-18T06:00:19;102403.75;;;19.57;100.00
38022;BME280;23832;43.216;27.946;2022-10-18T06:02:21;102405.56;;;19.71;100.00
38022;BME280;23832;43.216;27.946;2022-10-18T06:04:23;102406.16;;;19.88;100.00
38022;BME280;23832;43.216;27.946;2022-10-18T06:06:24;102409.13;;;20.00;100.00
38022;BME280;23832;43.216;27.946;2022-10-18T06:08:26;102400.84;;;20.16;100.00
38022;BME280;23832;43.216;27.946;2022-10-18T06:10:30;102400.34;;;20.34;100.00
38022;BME280;23832;43.216;27.946;2022-10-18T06:12:32;102405.06;;;20.53;100.00
38022;BME280;23832;43.216;27.946;2022-10-18T06:14:33;102402.06;;;20.69;100.00
38022;BME280;23832;43.216;27.946;2022-10-18T06:16:35;102398.25;;;20.85;100.00
38022;BME280;23832;43.216;27.946;2022-10-18T06:18:36;102399.97;;;21.00;100.00
38022;BME280;23832;43.216;27.946;2022-10-18T06:20:38;102402.09;;;21.17;100.00
38022;BME280;23832;43.216;27.946;2022-10-18T06:22:40;102396.41;;;21.34;100.00
38022;BME280;23832;43.216;27.946;2022-10-18T06:24:41;102401.63;;;21.48;100.00
38022;BME280;23832;43.216;27.946;2022-10-18T06:26:44;102391.75;;;21.62;100.00
38022;BME280;23832;43.216;27.946;2022-10-18T06:28:46;102394.25;;;21.77;100.00
38022;BME280;23832;43.216;27.946;2022-10-18T06:30:48;102383.94;;;21.87;100.00
38022;BME280;23832;43.216;27.946;2022-10-18T06:32:49;102393.66;;;22.08;100.00
38022;BME280;23832;43.216;27.946;2022-10-18T06:34:51;102382.50;;;22.24;100.00
38022;BME280;23832;43.216;27.946;2022-10-18T06:36:53;102393.66;;;22.41;100.00
38022;BME280;23832;43.216;27.946;2022-10-18T06:38:57;102390.31;;;22.59;100.00
38022;BME280;23832;43.216;27.946;2022-10-18T06:40:59;102391.31;;;22.78;100.00
38022;BME280;23832;43.216;27.946;2022-10-18T06:43:02;102390.28;;;22.92;100.00
38022;BME280;23832;43.216;27.946;2022-10-18T06:45:07;102385.88;;;23.04;98.12
38022;BME280;23832;43.216;27.946;2022-10-18T06:47:08;102386.22;;;23.21;98.71
38022;BME280;23832;43.216;27.946;2022-10-18T06:49:11;102381.78;;;23.33;95.51
38022;BME280;23832;43.216;27.946;2022-10-18T06:51:13;102381.72;;;23.46;90.79
38022;BME280;23832;43.216;27.946;2022-10-18T06:53:15;102382.69;;;23.59;89.71
38022;BME280;23832;43.216;27.946;2022-10-18T06:55:17;102377.69;;;23.62;82.84
38022;BME280;23832;43.216;27.946;2022-10-18T06:57:19;102383.91;;;23.63;79.80
38022;BME280;23832;43.216;27.946;2022-10-18T06:59:22;102386.22;;;23.59;77.63
38022;BME280;23832;43.216;27.946;2022-10-18T07:01:23;102386.88;;;23.48;76.92
38022;BME280;23832;43.216;27.946;2022-10-18T07:03:25;102388.16;;;23.45;76.43
38022;BME280;23832;43.216;27.946;2022-10-18T07:05:27;102387.75;;;23.42;75.75
38022;BME280;23832;43.216;27.946;2022-10-18T07:07:29;102384.66;;;23.38;75.92
38022;BME280;23832;43.216;27.946;2022-10-18T07:09:31;102385.47;;;23.45;80.69
38022;BME280;23832;43.216;27.946;2022-10-18T07:11:32;102390.75;;;23.59;83.67
38022;BME280;23832;43.216;27.946;2022-10-18T07:13:34;102384.88;;;23.75;84.19
38022;BME280;23832;43.216;27.946;2022-10-18T07:15:37;102385.91;;;23.99;86.27
38022;BME280;23832;43.216;27.946;2022-10-18T07:17:39;102389.44;;;24.24;83.74
38022;BME280;23832;43.216;27.946;2022-10-18T07:19:40;102376.47;;;24.40;77.21
38022;BME280;23832;43.216;27.946;2022-10-18T07:21:42;102385.31;;;24.47;71.67
38022;BME280;23832;43.216;27.946;2022-10-18T07:23:44;102381.28;;;24.56;69.95
38022;BME280;23832;43.216;27.946;2022-10-18T07:25:46;102377.53;;;24.75;70.66
38022;BME280;23832;43.216;27.946;2022-10-18T07:27:47;102376.84;;;24.98;70.78
38022;BME280;23832;43.216;27.946;2022-10-18T07:29:49;102370.25;;;25.12;65.93
38022;BME280;23832;43.216;27.946;2022-10-18T07:31:52;102378.69;;;25.34;65.73
38022;BME280;23832;43.216;27.946;2022-10-18T07:33:54;102376.84;;;25.46;63.08
38022;BME280;23832;43.216;27.946;2022-10-18T07:35:59;102372.78;;;25.67;63.11
38022;BME280;23832;43.216;27.946;2022-10-18T07:38:03;102368.03;;;25.81;60.24
38022;BME280;23832;43.216;27.946;2022-10-18T07:40:05;102366.75;;;25.95;59.96
38022;BME280;23832;43.216;27.946;2022-10-18T07:42:06;102372.53;;;26.11;58.50
38022;BME280;23832;43.216;27.946;2022-10-18T07:44:08;102374.28;;;26.28;57.99
38022;BME280;23832;43.216;27.946;2022-10-18T07:46:10;102363.13;;;26.48;56.62
38022;BME280;23832;43.216;27.946;2022-10-18T07:48:13;102359.72;;;26.53;54.43
38022;BME280;23832;43.216;27.946;2022-10-18T07:50:15;102361.69;;;26.57;53.48
38022;BME280;23832;43.216;27.946;2022-10-18T07:52:17;102357.47;;;26.62;53.39
38022;BME280;23832;43.216;27.946;2022-10-18T07:54:18;102359.38;;;26.61;52.50
38022;BME280;23832;43.216;27.946;2022-10-18T07:56:21;102361.38;;;26.54;50.57
38022;BME280;23832;43.216;27.946;2022-10-18T07:58:23;102363.84;;;26.55;51.05
38022;BME280;23832;43.216;27.946;2022-10-18T08:00:25;102354.44;;;26.46;49.30
38022;BME280;23832;43.216;27.946;2022-10-18T08:02:26;102352.53;;;26.35;47.97
38022;BME280;23832;43.216;27.946;2022-10-18T08:04:29;102353.00;;;26.32;49.11
38022;BME280;23832;43.216;27.946;2022-10-18T08:06:31;102347.75;;;26.25;48.68
38022;BME280;23832;43.216;27.946;2022-10-18T08:08:33;102345.03;;;26.25;49.03
38022;BME280;23832;43.216;27.946;2022-10-18T08:10:35;102349.00;;;26.23;49.57
38022;BME280;23832;43.216;27.946;2022-10-18T08:12:36;102343.16;;;26.26;49.33
38022;BME280;23832;43.216;27.946;2022-10-18T08:14:38;102345.25;;;26.24;48.67
38022;BME280;23832;43.216;27.946;2022-10-18T08:16:40;102352.69;;;26.17;48.22
38022;BME280;23832;43.216;27.946;2022-10-18T08:18:41;102347.03;;;26.07;48.00
38022;BME280;23832;43.216;27.946;2022-10-18T08:20:44;102349.28;;;25.98;48.33
38022;BME280;23832;43.216;27.946;2022-10-18T08:22:48;102342.94;;;26.16;49.96
38022;BME280;23832;43.216;27.946;2022-10-18T08:24:50;102341.63;;;26.42;51.40
38022;BME280;23832;43.216;27.946;2022-10-18T08:26:51;102342.28;;;26.72;51.08
38022;BME280;23832;43.216;27.946;2022-10-18T08:28:53;102333.59;;;26.99;49.77
38022;BME280;23832;43.216;27.946;2022-10-18T08:30:55;102332.28;;;27.30;50.02
38022;BME280;23832;43.216;27.946;2022-10-18T08:32:56;102325.84;;;27.64;49.29
38022;BME280;23832;43.216;27.946;2022-10-18T08:34:58;102335.63;;;27.82;47.31
38022;BME280;23832;43.216;27.946;2022-10-18T08:37:01;102329.41;;;27.82;45.72
38022;BME280;23832;43.216;27.946;2022-10-18T08:39:03;102324.97;;;27.76;45.15
38022;BME280;23832;43.216;27.946;2022-10-18T08:41:13;102325.31;;;27.79;45.81
38022;BME280;23832;43.216;27.946;2022-10-18T08:43:20;102328.19;;;27.73;45.36
38022;BME280;23832;43.216;27.946;2022-10-18T08:45:26;102320.19;;;27.83;46.19
38022;BME280;23832;43.216;27.946;2022-10-18T08:47:32;102320.34;;;27.93;45.86
38022;BME280;23832;43.216;27.946;2022-10-18T08:49:35;102317.69;;;28.15;45.65
38022;BME280;23832;43.216;27.946;2022-10-18T08:51:38;102319.66;;;28.19;44.51
38022;BME280;23832;43.216;27.946;2022-10-18T08:53:45;102307.03;;;28.47;45.61
38022;BME280;23832;43.216;27.946;2022-10-18T08:55:52;102312.22;;;28.75;45.92
38022;BME280;23832;43.216;27.946;2022-10-18T08:57:55;102313.16;;;29.08;44.59
38022;BME280;23832;43.216;27.946;2022-10-18T08:59:57;102312.72;;;29.48;45.27
38022;BME280;23832;43.216;27.946;2022-10-18T09:02:01;102305.16;;;29.87;44.81
38022;BME280;23832;43.216;27.946;2022-10-18T09:04:09;102307.56;;;30.21;42.80
38022;BME280;23832;43.216;27.946;2022-10-18T09:06:18;102301.97;;;30.53;42.22
38022;BME280;23832;43.216;27.946;2022-10-18T09:08:30;102300.72;;;30.81;41.50
38022;BME280;23832;43.216;27.946;2022-10-18T09:10:42;102288.81;;;31.13;40.95
38022;BME280;23832;43.216;27.946;2022-10-18T09:12:49;102299.13;;;31.16;39.26
38022;BME280;23832;43.216;27.946;2022-10-18T09:17:16;102295.91;;;31.64;38.68
38022;BME280;23832;43.216;27.946;2022-10-18T09:19:25;102301.88;;;31.87;38.33
38022;BME280;23832;43.216;27.946;2022-10-18T09:21:35;102290.41;;;31.90;37.23
38022;BME280;23832;43.216;27.946;2022-10-18T09:23:42;102289.31;;;32.01;37.60
38022;BME280;23832;43.216;27.946;2022-10-18T09:25:46;102286.50;;;32.22;37.91
38022;BME280;23832;43.216;27.946;2022-10-18T09:27:53;102282.13;;;32.26;35.76
38022;BME280;23832;43.216;27.946;2022-10-18T09:29:57;102278.84;;;32.24;35.35
38022;BME280;23832;43.216;27.946;2022-10-18T09:32:03;102275.63;;;32.11;34.94
38022;BME280;23832;43.216;27.946;2022-10-18T09:34:17;102276.78;;;31.90;35.51
38022;BME280;23832;43.216;27.946;2022-10-18T09:36:21;102275.38;;;32.03;36.67
38022;BME280;23832;43.216;27.946;2022-10-18T09:38:25;102266.81;;;32.30;36.44
38022;BME280;23832;43.216;27.946;2022-10-18T09:40:31;102233.81;;;32.36;35.24
38022;BME280;23832;43.216;27.946;2022-10-18T09:42:38;102264.91;;;32.80;34.56
38022;BME280;23832;43.216;27.946;2022-10-18T09:44:43;102273.25;;;32.59;33.43
38022;BME280;23832;43.216;27.946;2022-10-18T09:46:46;102263.56;;;32.38;33.38
38022;BME280;23832;43.216;27.946;2022-10-18T09:48:51;102261.22;;;32.01;33.31
38022;BME280;23832;43.216;27.946;2022-10-18T09:50:55;102255.53;;;31.61;33.70
38022;BME280;23832;43.216;27.946;2022-10-18T09:53:01;102252.59;;;31.22;34.04
38022;BME280;23832;43.216;27.946;2022-10-18T09:55:04;102244.91;;;30.89;34.64
38022;BME280;23832;43.216;27.946;2022-10-18T09:57:10;102247.06;;;30.71;34.98
38022;BME280;23832;43.216;27.946;2022-10-18T09:59:26;102246.72;;;30.47;34.91
38022;BME280;23832;43.216;27.946;2022-10-18T10:01:30;102243.38;;;30.25;35.02
38022;BME280;23832;43.216;27.946;2022-10-18T10:03:32;102238.38;;;30.02;35.18
38022;BME280;23832;43.216;27.946;2022-10-18T10:05:34;102238.53;;;29.85;35.50
38022;BME280;23832;43.216;27.946;2022-10-18T10:07:40;102231.09;;;29.70;35.68
38022;BME280;23832;43.216;27.946;2022-10-18T10:09:43;102229.63;;;29.52;35.93
38022;BME280;23832;43.216;27.946;2022-10-18T10:11:46;102223.66;;;29.55;36.85
38022;BME280;23832;43.216;27.946;2022-10-18T10:13:49;102223.81;;;29.76;37.59
38022;BME280;23832;43.216;27.946;2022-10-18T10:15:53;102207.72;;;29.69;36.27
38022;BME280;23832;43.216;27.946;2022-10-18T10:17:55;102206.38;;;29.72;36.45
38022;BME280;23832;43.216;27.946;2022-10-18T10:19:57;102205.56;;;29.71;36.21
38022;BME280;23832;43.216;27.946;2022-10-18T10:22:03;102204.91;;;29.54;35.61
38022;BME280;23832;43.216;27.946;2022-10-18T10:24:06;102205.34;;;29.40;35.63
38022;BME280;23832;43.216;27.946;2022-10-18T10:26:19;102205.19;;;29.20;36.06
38022;BME280;23832;43.216;27.946;2022-10-18T10:28:22;102200.88;;;29.24;36.99
38022;BME280;23832;43.216;27.946;2022-10-18T10:30:27;102196.88;;;29.32;36.97
38022;BME280;23832;43.216;27.946;2022-10-18T10:32:43;102197.91;;;29.26;36.54
38022;BME280;23832;43.216;27.946;2022-10-18T10:34:45;102196.19;;;29.15;36.38
38022;BME280;23832;43.216;27.946;2022-10-18T10:36:48;102186.03;;;29.00;36.44